sensor_id;sensor_type;location;lat;lon;timestamp;P1;durP1;ratioP1;P2;durP2;ratioP2
42246;SDS011;27913;42.722;23.268;2023-03-16T00:03:46;0.38;;;0.13;;
42246;SDS011;27913;42.722;23.268;2023-03-16T00:06:15;1.02;;;0.30;;
42246;SDS011;27913;42.722;23.268;2023-03-16T00:08:40;0.90;;;0.30;;
42246;SDS011;27913;42.722;23.268;2023-03-16T00:11:07;0.30;;;0.17;;
42246;SDS011;27913;42.722;23.268;2023-03-16T00:13:32;0.63;;;0.30;;
42246;SDS011;27913;42.722;23.268;2023-03-16T00:15:59;0.20;;;0.13;;
42246;SDS011;27913;42.722;23.268;2023-03-16T00:18:28;0.97;;;0.40;;
42246;SDS011;27913;42.722;23.268;2023-03-16T00:20:56;0.30;;;0.20;;
42246;SDS011;27913;42.722;23.268;2023-03-16T00:23:23;0.17;;;0.10;;
42246;SDS011;27913;42.722;23.268;2023-03-16T00:25:56;1.55;;;0.55;;
42246;SDS011;27913;42.722;23.268;2023-03-16T00:28:23;0.20;;;0.10;;
42246;SDS011;27913;42.722;23.268;2023-03-16T00:30:50;0.57;;;0.20;;
42246;SDS011;27913;42.722;23.268;2023-03-16T00:33:16;1.23;;;0.30;;
42246;SDS011;27913;42.722;23.268;2023-03-16T00:35:44;1.83;;;0.50;;
42246;SDS011;27913;42.722;23.268;2023-03-16T00:38:17;0.75;;;0.30;;
42246;SDS011;27913;42.722;23.268;2023-03-16T00:40:44;0.30;;;0.20;;
42246;SDS011;27913;42.722;23.268;2023-03-16T00:43:10;0.70;;;0.30;;
42246;SDS011;27913;42.722;23.268;2023-03-16T00:45:36;1.02;;;0.30;;
42246;SDS011;27913;42.722;23.268;2023-03-16T00:48:02;1.38;;;0.30;;
42246;SDS011;27913;42.722;23.268;2023-03-16T00:50:28;0.47;;;0.28;;
42246;SDS011;27913;42.722;23.268;2023-03-16T00:52:53;1.67;;;0.32;;
42246;SDS011;27913;42.722;23.268;2023-03-16T00:55:19;1.02;;;0.40;;
42246;SDS011;27913;42.722;23.268;2023-03-16T00:57:45;0.70;;;0.20;;
42246;SDS011;27913;42.722;23.268;2023-03-16T01:00:11;0.52;;;0.20;;
42246;SDS011;27913;42.722;23.268;2023-03-16T01:02:40;0.88;;;0.32;;
42246;SDS011;27913;42.722;23.268;2023-03-16T01:05:06;0.20;;;0.20;;
42246;SDS011;27913;42.722;23.268;2023-03-16T01:07:33;1.15;;;0.57;;
42246;SDS011;27913;42.722;23.268;2023-03-16T01:10:00;0.60;;;0.32;;
42246;SDS011;27913;42.722;23.268;2023-03-16T01:12:26;0.45;;;0.30;;
42246;SDS011;27913;42.722;23.268;2023-03-16T01:14:52;1.05;;;0.30;;
42246;SDS011;27913;42.722;23.268;2023-03-16T01:17:19;0.40;;;0.20;;
42246;SDS011;27913;42.722;23.268;2023-03-16T01:19:46;0.75;;;0.30;;
42246;SDS011;27913;42.722;23.268;2023-03-16T01:22:13;1.35;;;0.40;;
42246;SDS011;27913;42.722;23.268;2023-03-16T01:24:39;0.73;;;0.30;;
42246;SDS011;27913;42.722;23.268;2023-03-16T01:27:06;0.82;;;0.40;;
42246;SDS011;27913;42.722;23.268;2023-03-16T01:29:33;0.30;;;0.10;;
42246;SDS011;27913;42.722;23.268;2023-03-16T01:31:59;0.45;;;0.20;;
42246;SDS011;27913;42.722;23.268;2023-03-16T01:34:26;0.30;;;0.10;;
42246;SDS011;27913;42.722;23.268;2023-03-16T01:36:52;0.40;;;0.30;;
42246;SDS011;27913;42.722;23.268;2023-03-16T01:39:18;0.15;;;0.10;;
42246;SDS011;27913;42.722;23.268;2023-03-16T01:41:44;0.30;;;0.13;;
42246;SDS011;27913;42.722;23.268;2023-03-16T01:44:12;0.57;;;0.10;;
42246;SDS011;27913;42.722;23.268;2023-03-16T01:46:40;0.22;;;0.10;;
42246;SDS011;27913;42.722;23.268;2023-03-16T01:49:11;1.02;;;0.20;;
42246;SDS011;27913;42.722;23.268;2023-03-16T01:51:58;0.40;;;0.20;;
42246;SDS011;27913;42.722;23.268;2023-03-16T01:57:40;0.50;;;0.30;;
42246;SDS011;27913;42.722;23.268;2023-03-16T02:00:10;0.52;;;0.25;;
42246;SDS011;27913;42.722;23.268;2023-03-16T02:02:45;0.10;;;0.08;;
42246;SDS011;27913;42.722;23.268;2023-03-16T02:05:21;0.68;;;0.20;;
42246;SDS011;27913;42.722;23.268;2023-03-16T02:07:50;0.75;;;0.15;;
42246;SDS011;27913;42.722;23.268;2023-03-16T02:10:23;0.88;;;0.20;;
42246;SDS011;27913;42.722;23.268;2023-03-16T02:12:51;0.15;;;0.10;;
42246;SDS011;27913;42.722;23.268;2023-03-16T02:15:18;0.50;;;0.10;;
42246;SDS011;27913;42.722;23.268;2023-03-16T02:17:44;1.20;;;0.17;;
42246;SDS011;27913;42.722;23.268;2023-03-16T02:22:49;1.25;;;0.30;;
42246;SDS011;27913;42.722;23.268;2023-03-16T02:25:20;1.38;;;0.30;;
42246;SDS011;27913;42.722;23.268;2023-03-16T02:28:09;0.47;;;0.10;;
42246;SDS011;27913;42.722;23.268;2023-03-16T02:30:40;0.55;;;0.17;;
42246;SDS011;27913;42.722;23.268;2023-03-16T02:33:06;0.82;;;0.38;;
42246;SDS011;27913;42.722;23.268;2023-03-16T02:35:31;0.73;;;0.25;;
42246;SDS011;27913;42.722;23.268;2023-03-16T02:37:57;0.40;;;0.20;;
42246;SDS011;27913;42.722;23.268;2023-03-16T02:43:05;0.65;;;0.20;;
42246;SDS011;27913;42.722;23.268;2023-03-16T02:45:38;0.30;;;0.10;;
42246;SDS011;27913;42.722;23.268;2023-03-16T02:48:18;0.32;;;0.20;;
42246;SDS011;27913;42.722;23.268;2023-03-16T02:50:49;0.30;;;0.10;;
42246;SDS011;27913;42.722;23.268;2023-03-16T02:53:16;0.57;;;0.30;;
42246;SDS011;27913;42.722;23.268;2023-03-16T02:55:43;0.13;;;0.10;;
42246;SDS011;27913;42.722;23.268;2023-03-16T02:58:09;0.63;;;0.15;;
42246;SDS011;27913;42.722;23.268;2023-03-16T03:00:35;0.40;;;0.20;;
42246;SDS011;27913;42.722;23.268;2023-03-16T03:03:02;0.40;;;0.10;;
42246;SDS011;27913;42.722;23.268;2023-03-16T03:05:28;0.60;;;0.30;;
42246;SDS011;27913;42.722;23.268;2023-03-16T03:07:54;0.65;;;0.30;;
42246;SDS011;27913;42.722;23.268;2023-03-16T03:10:20;1.73;;;0.45;;
42246;SDS011;27913;42.722;23.268;2023-03-16T03:12:46;0.32;;;0.17;;
42246;SDS011;27913;42.722;23.268;2023-03-16T03:15:13;0.85;;;0.40;;
42246;SDS011;27913;42.722;23.268;2023-03-16T03:17:40;0.00;;;0.00;;
42246;SDS011;27913;42.722;23.268;2023-03-16T03:20:07;0.00;;;0.00;;
42246;SDS011;27913;42.722;23.268;2023-03-16T03:22:42;0.00;;;0.00;;
42246;SDS011;27913;42.722;23.268;2023-03-16T03:25:09;3.17;;;1.27;;
42246;SDS011;27913;42.722;23.268;2023-03-16T03:27:36;0.00;;;0.00;;
42246;SDS011;27913;42.722;23.268;2023-03-16T03:30:02;0.00;;;0.00;;
42246;SDS011;27913;42.722;23.268;2023-03-16T03:32:29;0.00;;;0.00;;
42246;SDS011;27913;42.722;23.268;2023-03-16T03:34:55;0.00;;;0.00;;
42246;SDS011;27913;42.722;23.268;2023-03-16T03:37:20;0.00;;;0.00;;
42246;SDS011;27913;42.722;23.268;2023-03-16T03:39:46;0.00;;;0.00;;
42246;SDS011;27913;42.722;23.268;2023-03-16T03:42:12;0.00;;;0.00;;
42246;SDS011;27913;42.722;23.268;2023-03-16T03:44:38;0.00;;;0.00;;
42246;SDS011;27913;42.722;23.268;2023-03-16T03:47:03;0.00;;;0.00;;
42246;SDS011;27913;42.722;23.268;2023-03-16T03:49:29;0.00;;;0.00;;
42246;SDS011;27913;42.722;23.268;2023-03-16T03:51:55;0.00;;;0.00;;
42246;SDS011;27913;42.722;23.268;2023-03-16T03:54:23;0.00;;;0.00;;
42246;SDS011;27913;42.722;23.268;2023-03-16T03:56:50;0.00;;;0.00;;
42246;SDS011;27913;42.722;23.268;2023-03-16T03:59:15;0.00;;;0.00;;
42246;SDS011;27913;42.722;23.268;2023-03-16T04:01:41;0.00;;;0.00;;
42246;SDS011;27913;42.722;23.268;2023-03-16T04:04:07;0.00;;;0.00;;
42246;SDS011;27913;42.722;23.268;2023-03-16T04:06:32;0.00;;;0.00;;
42246;SDS011;27913;42.722;23.268;2023-03-16T04:08:58;0.00;;;0.00;;
42246;SDS011;27913;42.722;23.268;2023-03-16T04:11:23;0.00;;;0.00;;
42246;SDS011;27913;42.722;23.268;2023-03-16T04:13:50;0.00;;;0.00;;
42246;SDS011;27913;42.722;23.268;2023-03-16T04:16:17;0.00;;;0.00;;
42246;SDS011;27913;42.722;23.268;2023-03-16T04:18:43;0.00;;;0.00;;
42246;SDS011;27913;42.722;23.268;2023-03-16T04:21:11;0.00;;;0.00;;
42246;SDS011;27913;42.722;23.268;2023-03-16T04:23:39;0.00;;;0.00;;
42246;SDS011;27913;42.722;23.268;2023-03-16T04:26:06;0.52;;;0.52;;
42246;SDS011;27913;42.722;23.268;2023-03-16T04:28:32;0.00;;;0.00;;
42246;SDS011;27913;42.722;23.268;2023-03-16T04:31:01;0.00;;;0.00;;
42246;SDS011;27913;42.722;23.268;2023-03-16T04:33:29;0.00;;;0.00;;
42246;SDS011;27913;42.722;23.268;2023-03-16T04:35:56;0.35;;;0.25;;
42246;SDS011;27913;42.722;23.268;2023-03-16T04:38:22;0.00;;;0.00;;
42246;SDS011;27913;42.722;23.268;2023-03-16T04:40:47;0.00;;;0.00;;
42246;SDS011;27913;42.722;23.268;2023-03-16T04:43:13;0.00;;;0.00;;
42246;SDS011;27913;42.722;23.268;2023-03-16T04:45:39;0.00;;;0.00;;
42246;SDS011;27913;42.722;23.268;2023-03-16T04:48:05;0.00;;;0.00;;
42246;SDS011;27913;42.722;23.268;2023-03-16T04:50:30;0.00;;;0.00;;
42246;SDS011;27913;42.722;23.268;2023-03-16T04:52:56;0.00;;;0.00;;
42246;SDS011;27913;42.722;23.268;2023-03-16T04:55:21;0.00;;;0.00;;
42246;SDS011;27913;42.722;23.268;2023-03-16T04:57:47;0.00;;;0.00;;
42246;SDS011;27913;42.722;23.268;2023-03-16T05:00:13;0.00;;;0.00;;
42246;SDS011;27913;42.722;23.268;2023-03-16T05:05:10;0.00;;;0.00;;
42246;SDS011;27913;42.722;23.268;2023-03-16T05:07:35;0.00;;;0.00;;
42246;SDS011;27913;42.722;23.268;2023-03-16T05:10:01;0.00;;;0.00;;
42246;SDS011;27913;42.722;23.268;2023-03-16T05:12:28;0.00;;;0.00;;
42246;SDS011;27913;42.722;23.268;2023-03-16T05:14:53;0.00;;;0.00;;
42246;SDS011;27913;42.722;23.268;2023-03-16T05:17:19;0.00;;;0.00;;
42246;SDS011;27913;42.722;23.268;2023-03-16T05:19:46;0.00;;;0.00;;
42246;SDS011;27913;42.722;23.268;2023-03-16T05:22:12;0.00;;;0.00;;
42246;SDS011;27913;42.722;23.268;2023-03-16T05:24:37;0.00;;;0.00;;
42246;SDS011;27913;42.722;23.268;2023-03-16T05:27:03;0.00;;;0.00;;
42246;SDS011;27913;42.722;23.268;2023-03-16T05:29:30;0.00;;;0.00;;
42246;SDS011;27913;42.722;23.268;2023-03-16T05:31:56;0.00;;;0.00;;
42246;SDS011;27913;42.722;23.268;2023-03-16T05:34:22;0.00;;;0.00;;
42246;SDS011;27913;42.722;23.268;2023-03-16T05:36:47;0.00;;;0.00;;
42246;SDS011;27913;42.722;23.268;2023-03-16T05:39:13;0.00;;;0.00;;
42246;SDS011;27913;42.722;23.268;2023-03-16T05:41:38;0.00;;;0.00;;
42246;SDS011;27913;42.722;23.268;2023-03-16T05:44:04;0.00;;;0.00;;
42246;SDS011;27913;42.722;23.268;2023-03-16T05:46:30;0.00;;;0.00;;
42246;SDS011;27913;42.722;23.268;2023-03-16T05:48:56;0.00;;;0.00;;
42246;SDS011;27913;42.722;23.268;2023-03-16T05:51:21;0.00;;;0.00;;
42246;SDS011;27913;42.722;23.268;2023-03-16T05:53:50;0.00;;;0.00;;
42246;SDS011;27913;42.722;23.268;2023-03-16T05:59:30;0.00;;;0.00;;
42246;SDS011;27913;42.722;23.268;2023-03-16T06:01:55;0.03;;;0.03;;
42246;SDS011;27913;42.722;23.268;2023-03-16T06:04:21;0.00;;;0.00;;
42246;SDS011;27913;42.722;23.268;2023-03-16T06:06:46;0.00;;;0.00;;
42246;SDS011;27913;42.722;23.268;2023-03-16T06:09:12;0.00;;;0.00;;
42246;SDS011;27913;42.722;23.268;2023-03-16T06:11:37;0.00;;;0.00;;
42246;SDS011;27913;42.722;23.268;2023-03-16T06:14:03;0.00;;;0.00;;
42246;SDS011;27913;42.722;23.268;2023-03-16T06:16:29;0.00;;;0.00;;
42246;SDS011;27913;42.722;23.268;2023-03-16T06:18:54;0.00;;;0.00;;
42246;SDS011;27913;42.722;23.268;2023-03-16T06:21:20;0.00;;;0.00;;
42246;SDS011;27913;42.722;23.268;2023-03-16T06:23:47;0.00;;;0.00;;
42246;SDS011;27913;42.722;23.268;2023-03-16T06:26:12;0.38;;;0.38;;
42246;SDS011;27913;42.722;23.268;2023-03-16T06:28:38;0.00;;;0.00;;
42246;SDS011;27913;42.722;23.268;2023-03-16T06:31:05;0.00;;;0.00;;
42246;SDS011;27913;42.722;23.268;2023-03-16T06:33:31;0.00;;;0.00;;
42246;SDS011;27913;42.722;23.268;2023-03-16T06:35:57;0.00;;;0.00;;
42246;SDS011;27913;42.722;23.268;2023-03-16T06:38:22;0.00;;;0.00;;
42246;SDS011;27913;42.722;23.268;2023-03-16T06:40:51;0.00;;;0.00;;
42246;SDS011;27913;42.722;23.268;2023-03-16T06:43:17;0.00;;;0.00;;
42246;SDS011;27913;42.722;23.268;2023-03-16T06:45:42;0.00;;;0.00;;
42246;SDS011;27913;42.722;23.268;2023-03-16T06:48:08;0.00;;;0.00;;
42246;SDS011;27913;42.722;23.268;2023-03-16T06:50:34;0.00;;;0.00;;
42246;SDS011;27913;42.722;23.268;2023-03-16T06:53:00;0.00;;;0.00;;
42246;SDS011;27913;42.722;23.268;2023-03-16T06:55:25;0.00;;;0.00;;
42246;SDS011;27913;42.722;23.268;2023-03-16T06:57:51;0.00;;;0.00;;
42246;SDS011;27913;42.722;23.268;2023-03-16T07:00:16;0.00;;;0.00;;
42246;SDS011;27913;42.722;23.268;2023-03-16T07:02:42;0.00;;;0.00;;
42246;SDS011;27913;42.722;23.268;2023-03-16T07:05:08;0.00;;;0.00;;
42246;SDS011;27913;42.722;23.268;2023-03-16T07:07:38;0.00;;;0.00;;
42246;SDS011;27913;42.722;23.268;2023-03-16T07:10:13;0.00;;;0.00;;
42246;SDS011;27913;42.722;23.268;2023-03-16T07:12:41;0.00;;;0.00;;
42246;SDS011;27913;42.722;23.268;2023-03-16T07:15:07;0.00;;;0.00;;
42246;SDS011;27913;42.722;23.268;2023-03-16T07:17:33;0.00;;;0.00;;
42246;SDS011;27913;42.722;23.268;2023-03-16T07:19:59;0.00;;;0.00;;
42246;SDS011;27913;42.722;23.268;2023-03-16T07:22:24;0.00;;;0.00;;
42246;SDS011;27913;42.722;23.268;2023-03-16T07:24:50;0.00;;;0.00;;
42246;SDS011;27913;42.722;23.268;2023-03-16T07:27:21;0.00;;;0.00;;
42246;SDS011;27913;42.722;23.268;2023-03-16T07:29:48;0.00;;;0.00;;
42246;SDS011;27913;42.722;23.268;2023-03-16T07:32:14;0.00;;;0.00;;
42246;SDS011;27913;42.722;23.268;2023-03-16T07:34:39;0.00;;;0.00;;
42246;SDS011;27913;42.722;23.268;2023-03-16T07:37:06;0.00;;;0.00;;
42246;SDS011;27913;42.722;23.268;2023-03-16T07:39:33;0.00;;;0.00;;
42246;SDS011;27913;42.722;23.268;2023-03-16T07:41:59;0.00;;;0.00;;
42246;SDS011;27913;42.722;23.268;2023-03-16T07:44:25;0.00;;;0.00;;
42246;SDS011;27913;42.722;23.268;2023-03-16T07:46:51;0.00;;;0.00;;
42246;SDS011;27913;42.722;23.268;2023-03-16T07:49:17;0.00;;;0.00;;
42246;SDS011;27913;42.722;23.268;2023-03-16T07:51:42;0.00;;;0.00;;
42246;SDS011;27913;42.722;23.268;2023-03-16T07:54:08;0.00;;;0.00;;
42246;SDS011;27913;42.722;23.268;2023-03-16T07:56:33;0.00;;;0.00;;
42246;SDS011;27913;42.722;23.268;2023-03-16T07:58:59;0.00;;;0.00;;
42246;SDS011;27913;42.722;23.268;2023-03-16T08:01:25;0.00;;;0.00;;
42246;SDS011;27913;42.722;23.268;2023-03-16T08:03:51;0.00;;;0.00;;
42246;SDS011;27913;42.722;23.268;2023-03-16T08:06:17;0.00;;;0.00;;
42246;SDS011;27913;42.722;23.268;2023-03-16T08:08:43;0.00;;;0.00;;
42246;SDS011;27913;42.722;23.268;2023-03-16T08:11:08;0.00;;;0.00;;
42246;SDS011;27913;42.722;23.268;2023-03-16T08:13:34;0.35;;;0.32;;
42246;SDS011;27913;42.722;23.268;2023-03-16T08:15:59;0.00;;;0.00;;
42246;SDS011;27913;42.722;23.268;2023-03-16T08:18:29;0.13;;;0.10;;
42246;SDS011;27913;42.722;23.268;2023-03-16T08:20:55;0.00;;;0.00;;
42246;SDS011;27913;42.722;23.268;2023-03-16T08:23:21;0.00;;;0.00;;
42246;SDS011;27913;42.722;23.268;2023-03-16T08:25:53;0.00;;;0.00;;
42246;SDS011;27913;42.722;23.268;2023-03-16T08:28:21;0.00;;;0.00;;
42246;SDS011;27913;42.722;23.268;2023-03-16T08:30:50;0.00;;;0.00;;
42246;SDS011;27913;42.722;23.268;2023-03-16T08:33:17;0.00;;;0.00;;
42246;SDS011;27913;42.722;23.268;2023-03-16T08:35:45;0.00;;;0.00;;
42246;SDS011;27913;42.722;23.268;2023-03-16T08:38:12;0.00;;;0.00;;
42246;SDS011;27913;42.722;23.268;2023-03-16T08:40:39;0.00;;;0.00;;
42246;SDS011;27913;42.722;23.268;2023-03-16T08:43:09;0.00;;;0.00;;
42246;SDS011;27913;42.722;23.268;2023-03-16T08:45:34;0.00;;;0.00;;
42246;SDS011;27913;42.722;23.268;2023-03-16T08:48:00;0.00;;;0.00;;
42246;SDS011;27913;42.722;23.268;2023-03-16T08:50:26;0.00;;;0.00;;
42246;SDS011;27913;42.722;23.268;2023-03-16T08:52:52;0.00;;;0.00;;
42246;SDS011;27913;42.722;23.268;2023-03-16T08:55:17;0.00;;;0.00;;
42246;SDS011;27913;42.722;23.268;2023-03-16T08:57:43;0.00;;;0.00;;
42246;SDS011;27913;42.722;23.268;2023-03-16T09:00:10;0.00;;;0.00;;
42246;SDS011;27913;42.722;23.268;2023-03-16T09:02:37;0.00;;;0.00;;
42246;SDS011;27913;42.722;23.268;2023-03-16T09:05:09;0.00;;;0.00;;
42246;SDS011;27913;42.722;23.268;2023-03-16T09:07:36;0.00;;;0.00;;
42246;SDS011;27913;42.722;23.268;2023-03-16T09:10:03;0.00;;;0.00;;
42246;SDS011;27913;42.722;23.268;2023-03-16T09:12:30;0.43;;;0.40;;
42246;SDS011;27913;42.722;23.268;2023-03-16T09:14:59;1.58;;;1.13;;
42246;SDS011;27913;42.722;23.268;2023-03-16T09:17:25;0.00;;;0.00;;
42246;SDS011;27913;42.722;23.268;2023-03-16T09:19:52;0.80;;;0.65;;
42246;SDS011;27913;42.722;23.268;2023-03-16T09:22:18;0.00;;;0.00;;
42246;SDS011;27913;42.722;23.268;2023-03-16T09:24:44;0.00;;;0.00;;
42246;SDS011;27913;42.722;23.268;2023-03-16T09:27:10;0.00;;;0.00;;
42246;SDS011;27913;42.722;23.268;2023-03-16T09:29:36;0.00;;;0.00;;
42246;SDS011;27913;42.722;23.268;2023-03-16T09:32:01;0.00;;;0.00;;
42246;SDS011;27913;42.722;23.268;2023-03-16T09:34:28;0.00;;;0.00;;
42246;SDS011;27913;42.722;23.268;2023-03-16T09:36:53;0.00;;;0.00;;
42246;SDS011;27913;42.722;23.268;2023-03-16T09:39:19;0.00;;;0.00;;
42246;SDS011;27913;42.722;23.268;2023-03-16T09:41:47;0.63;;;0.32;;
42246;SDS011;27913;42.722;23.268;2023-03-16T09:46:55;0.00;;;0.00;;
42246;SDS011;27913;42.722;23.268;2023-03-16T09:49:25;0.00;;;0.00;;
42246;SDS011;27913;42.722;23.268;2023-03-16T09:52:04;0.00;;;0.00;;
42246;SDS011;27913;42.722;23.268;2023-03-16T09:57:13;0.00;;;0.00;;
42246;SDS011;27913;42.722;23.268;2023-03-16T09:59:47;0.00;;;0.00;;
42246;SDS011;27913;42.722;23.268;2023-03-16T10:05:09;0.00;;;0.00;;
42246;SDS011;27913;42.722;23.268;2023-03-16T10:12:59;0.00;;;0.00;;
42246;SDS011;27913;42.722;23.268;2023-03-16T10:15:28;0.00;;;0.00;;
42246;SDS011;27913;42.722;23.268;2023-03-16T10:18:31;0.00;;;0.00;;
42246;SDS011;27913;42.722;23.268;2023-03-16T10:21:03;0.00;;;0.00;;
42246;SDS011;27913;42.722;23.268;2023-03-16T10:23:29;0.00;;;0.00;;
42246;SDS011;27913;42.722;23.268;2023-03-16T10:25:59;0.13;;;0.13;;
42246;SDS011;27913;42.722;23.268;2023-03-16T10:28:29;0.00;;;0.00;;
42246;SDS011;27913;42.722;23.268;2023-03-16T10:30:59;0.00;;;0.00;;
42246;SDS011;27913;42.722;23.268;2023-03-16T10:33:27;0.00;;;0.00;;
42246;SDS011;27913;42.722;23.268;2023-03-16T10:38:32;0.47;;;0.25;;
42246;SDS011;27913;42.722;23.268;2023-03-16T10:41:02;0.10;;;0.10;;
42246;SDS011;27913;42.722;23.268;2023-03-16T10:43:40;0.00;;;0.00;;
42246;SDS011;27913;42.722;23.268;2023-03-16T10:46:08;0.00;;;0.00;;
42246;SDS011;27913;42.722;23.268;2023-03-16T10:48:36;0.00;;;0.00;;
42246;SDS011;27913;42.722;23.268;2023-03-16T10:51:04;0.00;;;0.00;;
42246;SDS011;27913;42.722;23.268;2023-03-16T10:53:34;1.45;;;0.40;;
42246;SDS011;27913;42.722;23.268;2023-03-16T10:56:17;0.00;;;0.00;;
42246;SDS011;27913;42.722;23.268;2023-03-16T10:58:46;0.00;;;0.00;;
42246;SDS011;27913;42.722;23.268;2023-03-16T11:01:16;0.00;;;0.00;;
42246;SDS011;27913;42.722;23.268;2023-03-16T11:03:47;0.00;;;0.00;;
42246;SDS011;27913;42.722;23.268;2023-03-16T11:06:19;0.00;;;0.00;;
42246;SDS011;27913;42.722;23.268;2023-03-16T11:08:50;0.00;;;0.00;;
42246;SDS011;27913;42.722;23.268;2023-03-16T11:11:28;0.00;;;0.00;;
42246;SDS011;27913;42.722;23.268;2023-03-16T11:14:01;0.00;;;0.00;;
42246;SDS011;27913;42.722;23.268;2023-03-16T11:22:16;0.00;;;0.00;;
42246;SDS011;27913;42.722;23.268;2023-03-16T11:28:14;0.00;;;0.00;;
42246;SDS011;27913;42.722;23.268;2023-03-16T11:30:40;0.00;;;0.00;;
42246;SDS011;27913;42.722;23.268;2023-03-16T11:33:26;0.00;;;0.00;;
42246;SDS011;27913;42.722;23.268;2023-03-16T11:38:56;2.72;;;1.27;;
42246;SDS011;27913;42.722;23.268;2023-03-16T11:44:31;0.00;;;0.00;;
42246;SDS011;27913;42.722;23.268;2023-03-16T11:50:11;0.00;;;0.00;;
42246;SDS011;27913;42.722;23.268;2023-03-16T11:58:49;4.75;;;1.42;;
42246;SDS011;27913;42.722;23.268;2023-03-16T12:01:20;5.30;;;1.65;;
42246;SDS011;27913;42.722;23.268;2023-03-16T12:12:32;3.30;;;1.80;;
42246;SDS011;27913;42.722;23.268;2023-03-16T12:15:16;7.18;;;2.90;;
42246;SDS011;27913;42.722;23.268;2023-03-16T12:17:44;8.48;;;3.58;;
42246;SDS011;27913;42.722;23.268;2023-03-16T12:23:07;4.75;;;1.88;;
42246;SDS011;27913;42.722;23.268;2023-03-16T12:25:38;3.33;;;1.45;;
42246;SDS011;27913;42.722;23.268;2023-03-16T12:28:21;7.53;;;2.58;;
42246;SDS011;27913;42.722;23.268;2023-03-16T12:36:12;4.43;;;1.67;;
42246;SDS011;27913;42.722;23.268;2023-03-16T12:38:44;2.40;;;1.23;;
42246;SDS011;27913;42.722;23.268;2023-03-16T12:41:32;3.78;;;1.23;;
42246;SDS011;27913;42.722;23.268;2023-03-16T12:50:22;6.05;;;2.30;;
42246;SDS011;27913;42.722;23.268;2023-03-16T12:52:50;4.43;;;1.75;;
42246;SDS011;27913;42.722;23.268;2023-03-16T12:58:03;7.95;;;2.55;;
42246;SDS011;27913;42.722;23.268;2023-03-16T13:00:35;6.28;;;2.72;;
42246;SDS011;27913;42.722;23.268;2023-03-16T13:03:03;6.38;;;2.92;;
42246;SDS011;27913;42.722;23.268;2023-03-16T13:05:34;3.05;;;1.48;;
42246;SDS011;27913;42.722;23.268;2023-03-16T13:08:24;4.38;;;1.65;;
42246;SDS011;27913;42.722;23.268;2023-03-16T13:11:02;4.50;;;2.05;;
42246;SDS011;27913;42.722;23.268;2023-03-16T13:13:30;10.27;;;3.08;;
42246;SDS011;27913;42.722;23.268;2023-03-16T13:16:40;8.18;;;3.97;;
42246;SDS011;27913;42.722;23.268;2023-03-16T13:18:52;3.63;;;1.50;;
42246;SDS011;27913;42.722;23.268;2023-03-16T13:21:19;1.83;;;1.17;;
42246;SDS011;27913;42.722;23.268;2023-03-16T13:24:11;8.23;;;3.42;;
42246;SDS011;27913;42.722;23.268;2023-03-16T13:29:20;5.35;;;2.50;;
42246;SDS011;27913;42.722;23.268;2023-03-16T13:31:52;7.22;;;2.45;;
42246;SDS011;27913;42.722;23.268;2023-03-16T13:34:21;8.23;;;4.28;;
42246;SDS011;27913;42.722;23.268;2023-03-16T13:36:54;7.88;;;2.85;;
42246;SDS011;27913;42.722;23.268;2023-03-16T13:39:22;7.05;;;3.00;;
42246;SDS011;27913;42.722;23.268;2023-03-16T13:41:55;4.25;;;2.10;;
42246;SDS011;27913;42.722;23.268;2023-03-16T13:44:22;9.80;;;3.60;;
42246;SDS011;27913;42.722;23.268;2023-03-16T13:46:49;8.00;;;3.53;;
42246;SDS011;27913;42.722;23.268;2023-03-16T13:49:15;7.85;;;3.22;;
42246;SDS011;27913;42.722;23.268;2023-03-16T13:51:42;7.35;;;4.07;;
42246;SDS011;27913;42.722;23.268;2023-03-16T13:54:28;5.40;;;2.13;;
42246;SDS011;27913;42.722;23.268;2023-03-16T13:56:57;7.13;;;2.88;;
42246;SDS011;27913;42.722;23.268;2023-03-16T13:59:26;9.32;;;3.70;;
42246;SDS011;27913;42.722;23.268;2023-03-16T14:01:53;13.90;;;5.43;;
42246;SDS011;27913;42.722;23.268;2023-03-16T14:04:22;10.93;;;4.45;;
42246;SDS011;27913;42.722;23.268;2023-03-16T14:06:50;9.73;;;5.15;;
42246;SDS011;27913;42.722;23.268;2023-03-16T14:09:20;6.75;;;3.05;;
42246;SDS011;27913;42.722;23.268;2023-03-16T14:11:47;8.35;;;4.03;;
42246;SDS011;27913;42.722;23.268;2023-03-16T14:14:13;10.35;;;4.50;;
42246;SDS011;27913;42.722;23.268;2023-03-16T14:16:40;9.02;;;3.80;;
42246;SDS011;27913;42.722;23.268;2023-03-16T14:19:16;10.32;;;5.47;;
42246;SDS011;27913;42.722;23.268;2023-03-16T14:21:46;11.13;;;5.03;;
42246;SDS011;27913;42.722;23.268;2023-03-16T14:24:50;8.65;;;4.68;;
42246;SDS011;27913;42.722;23.268;2023-03-16T14:27:16;10.90;;;4.63;;
42246;SDS011;27913;42.722;23.268;2023-03-16T14:29:50;10.63;;;5.43;;
42246;SDS011;27913;42.722;23.268;2023-03-16T14:32:24;5.78;;;2.38;;
42246;SDS011;27913;42.722;23.268;2023-03-16T14:35:02;7.93;;;3.90;;
42246;SDS011;27913;42.722;23.268;2023-03-16T14:37:39;11.68;;;5.10;;
42246;SDS011;27913;42.722;23.268;2023-03-16T14:40:20;16.55;;;3.85;;
42246;SDS011;27913;42.722;23.268;2023-03-16T14:42:49;11.15;;;4.78;;
42246;SDS011;27913;42.722;23.268;2023-03-16T14:45:16;8.75;;;4.53;;
42246;SDS011;27913;42.722;23.268;2023-03-16T14:47:46;8.88;;;4.35;;
42246;SDS011;27913;42.722;23.268;2023-03-16T14:50:19;6.05;;;3.03;;
42246;SDS011;27913;42.722;23.268;2023-03-16T14:52:47;5.68;;;2.55;;
42246;SDS011;27913;42.722;23.268;2023-03-16T14:55:15;8.00;;;3.50;;
42246;SDS011;27913;42.722;23.268;2023-03-16T14:57:43;8.07;;;3.25;;
42246;SDS011;27913;42.722;23.268;2023-03-16T15:00:13;12.88;;;5.10;;
42246;SDS011;27913;42.722;23.268;2023-03-16T15:02:41;9.65;;;4.22;;
42246;SDS011;27913;42.722;23.268;2023-03-16T15:05:09;12.30;;;6.05;;
42246;SDS011;27913;42.722;23.268;2023-03-16T15:07:44;11.27;;;5.00;;
42246;SDS011;27913;42.722;23.268;2023-03-16T15:12:46;9.27;;;4.28;;
42246;SDS011;27913;42.722;23.268;2023-03-16T15:15:18;6.32;;;2.92;;
42246;SDS011;27913;42.722;23.268;2023-03-16T15:17:46;10.55;;;5.00;;
42246;SDS011;27913;42.722;23.268;2023-03-16T15:20:21;9.65;;;4.60;;
42246;SDS011;27913;42.722;23.268;2023-03-16T15:22:53;5.97;;;2.58;;
42246;SDS011;27913;42.722;23.268;2023-03-16T15:28:00;4.28;;;1.85;;
42246;SDS011;27913;42.722;23.268;2023-03-16T15:30:27;10.80;;;4.55;;
42246;SDS011;27913;42.722;23.268;2023-03-16T15:32:54;6.68;;;2.50;;
42246;SDS011;27913;42.722;23.268;2023-03-16T15:35:20;10.52;;;3.80;;
42246;SDS011;27913;42.722;23.268;2023-03-16T15:37:45;9.32;;;4.47;;
42246;SDS011;27913;42.722;23.268;2023-03-16T15:40:19;7.68;;;3.33;;
42246;SDS011;27913;42.722;23.268;2023-03-16T15:42:47;13.13;;;2.45;;
42246;SDS011;27913;42.722;23.268;2023-03-16T15:45:14;9.23;;;4.70;;
42246;SDS011;27913;42.722;23.268;2023-03-16T15:47:42;4.75;;;2.00;;
42246;SDS011;27913;42.722;23.268;2023-03-16T15:50:10;11.05;;;5.20;;
42246;SDS011;27913;42.722;23.268;2023-03-16T15:52:36;11.57;;;5.90;;
42246;SDS011;27913;42.722;23.268;2023-03-16T15:55:08;10.30;;;4.97;;
42246;SDS011;27913;42.722;23.268;2023-03-16T15:57:44;10.27;;;4.43;;
42246;SDS011;27913;42.722;23.268;2023-03-16T16:00:22;9.95;;;3.85;;
42246;SDS011;27913;42.722;23.268;2023-03-16T16:02:53;9.60;;;4.90;;
42246;SDS011;27913;42.722;23.268;2023-03-16T16:05:20;9.45;;;4.07;;
42246;SDS011;27913;42.722;23.268;2023-03-16T16:07:46;12.23;;;4.72;;
42246;SDS011;27913;42.722;23.268;2023-03-16T16:10:12;11.05;;;5.10;;
42246;SDS011;27913;42.722;23.268;2023-03-16T16:12:39;11.48;;;5.05;;